Flight Track Log - Related Links

Times and Time Zones

All times are in EDT time to prevent confusion due to time zone crossing. See the SWA407 flight status page for this flight to view local times or setup timezone preferences in your user account.

Time Position Orientation Groundspeed Altitude Reporting Facility
EDT Latitude Longitude Course Direction KTS MPH feet Rate Location/Type
Mon 07:17:50 PM 42.9500 -78.7167 360° North 156 180 1,700  Level Buffalo TRACON
Mon 07:17:56 PM 42.9500 -78.7167 56° Northeast 157 181 1,900 2,455 Climbing Buffalo TRACON
Mon 07:18:56 PM 42.9833 -78.6500 56° Northeast 229 264 4,400 3,286 Climbing Buffalo TRACON
Mon 07:20:02 PM 42.9167 -78.6333 170° South 241 277 8,800 3,111 Climbing Buffalo TRACON
Mon 07:20:44 PM 42.8731 -78.6342 181° South 275 316 10,000 2,588 Climbing Cleveland Center
Mon 07:21:44 PM 42.7897 -78.6339 180° South 280 322 13,200 3,500 Climbing Cleveland Center
Mon 07:22:44 PM 42.7003 -78.6394 183° South 304 350 17,000 3,600 Climbing Cleveland Center
Mon 07:23:44 PM 42.6003 -78.6453 182° South 340 391 20,400 3,750 Climbing Cleveland Center
Mon 07:24:44 PM 42.5003 -78.6542 184° South 357 411 24,500 2,300 Climbing Cleveland Center
Mon 07:25:44 PM 42.4019 -78.6206 166° South 362 417 25,000 250 Climbing Cleveland Center
Mon 07:26:44 PM 42.3208 -78.5247 139° Southeast 362 417 25,000  Level Cleveland Center
Mon 07:27:44 PM 42.2358 -78.4322 141° Southeast 378 435 25,000  Level Cleveland Center
Mon 07:28:44 PM 42.1528 -78.3397 140° Southeast 383 441 25,000  Level Cleveland Center
Mon 07:29:44 PM 42.0697 -78.2475 140° Southeast 388 447 25,000  Level Cleveland Center
Mon 07:30:44 PM 41.9886 -78.1583 141° Southeast 394 453 25,000  Level Cleveland Center
Mon 07:32:40 PM 41.8253 -77.9831 141° Southeast 397 457 25,000  Level New York Center
Mon 07:33:40 PM 41.7411 -77.8933 141° Southeast 397 457 25,000  Level New York Center
Mon 07:34:42 PM 41.6569 -77.8011 141° Southeast 392 451 25,000  Level New York Center
Mon 07:35:43 PM 41.5747 -77.7119 141° Southeast 392 451 25,000  Level New York Center
Mon 07:36:40 PM 41.4903 -77.6228 142° Southeast 392 451 25,000 -252 Level New York Center
Mon 07:37:42 PM 41.3961 -77.5219 141° Southeast 392 451 24,500 -750 Descending New York Center
Mon 07:38:40 PM 41.3097 -77.4306 142° Southeast 392 451 23,500 -1,008 Descending New York Center
Mon 07:39:41 PM 41.2231 -77.3392 142° Southeast 392 451 22,500 -984 Descending New York Center
Mon 07:40:42 PM 41.1383 -77.2508 142° Southeast 392 451 21,500 -984 Descending New York Center
Mon 07:41:43 PM 41.0533 -77.1631 142° Southeast 398 458 20,500 -1,008 Descending New York Center
Mon 07:42:41 PM 40.9728 -77.0758 141° Southeast 392 451 19,500 -756 Descending New York Center
Mon 07:43:42 PM 40.9056 -77.0064 142° Southeast 392 451 19,000 -555 Descending New York Center
Mon 07:44:40 PM 40.8086 -76.9069 142° Southeast 382 440 18,400 -1,271 Descending New York Center
Mon 07:45:40 PM 40.7419 -76.8269 138° Southeast 369 425 16,500 -1,686 Descending New York Center
Mon 07:46:41 PM 40.6672 -76.7383 138° Southeast 361 415 15,000 -744 Descending New York Center
Mon 07:47:41 PM 40.5844 -76.6411 138° Southeast 361 415 15,000  Level New York Center
Mon 07:48:41 PM 40.5206 -76.5400 130° Southeast 366 421 15,000  Level New York Center
Mon 07:49:41 PM 40.4672 -76.4400 125° Southeast 371 427 15,000  Level New York Center
Mon 07:50:42 PM 40.4078 -76.3289 125° Southeast 371 427 15,000  Level New York Center
Mon 07:51:43 PM 40.3186 -76.2753 155° Southeast 340 391 15,000  Level New York Center
Mon 07:52:41 PM 40.2286 -76.2817 183° South 312 359 15,000  Level New York Center
Mon 07:53:41 PM 40.1492 -76.2892 184° South 323 372 15,000 -198 Level New York Center
Mon 07:54:42 PM 40.0594 -76.2900 180° South 323 372 14,600 -846 Descending New York Center
Mon 07:56:17 PM 39.9000 -76.2667 174° South 331 381 12,800 -1,000 Descending Potomac TRACON
Mon 07:57:18 PM 39.8167 -76.2333 163° South 333 383 12,000 -397 Descending Potomac TRACON
Mon 07:58:18 PM 39.7333 -76.2000 163° South 323 372 12,000 -454 Level Potomac TRACON
Mon 07:59:17 PM 39.6667 -76.2500 210° Southwest 281 323 11,100 -1,200 Descending Potomac TRACON
Mon 08:00:18 PM 39.5833 -76.2500 180° South 299 344 9,600 -1,438 Descending Potomac TRACON
Mon 08:01:18 PM 39.5167 -76.2500 180° South 278 320 8,200 -1,500 Descending Potomac TRACON
Mon 08:02:18 PM 39.4667 -76.3167 226° Southwest 250 288 6,600 -1,617 Descending Potomac TRACON
Mon 08:03:13 PM 39.4500 -76.4000 256° West 252 290 5,100 -835 Descending Potomac TRACON
Mon 08:04:13 PM 39.4333 -76.4833 256° West 249 287 5,000 -524 Descending Potomac TRACON
Mon 08:05:19 PM 39.4000 -76.5833 247° West 248 285 4,000 -476 Descending Potomac TRACON
Mon 08:06:19 PM 39.3833 -76.6667 256° West 249 287 4,000  Level Potomac TRACON
Mon 08:07:19 PM 39.3500 -76.7500 243° Southwest 248 285 4,000 -149 Level Potomac TRACON
Mon 08:08:20 PM 39.3333 -76.8167 252° West 210 242 3,700 -496 Descending Potomac TRACON
Mon 08:09:20 PM 39.3167 -76.8833 252° West 208 239 3,000 -300 Descending Potomac TRACON
Mon 08:10:20 PM 39.2667 -76.9167 207° Southwest 196 226 3,100 -149 Climbing Potomac TRACON
Mon 08:11:21 PM 39.2167 -76.9167 180° South 205 236 2,700 -248 Descending Potomac TRACON
Mon 08:12:21 PM 39.1833 -76.8667 131° Southeast 183 211 2,600 -450 Descending Potomac TRACON
Mon 08:13:21 PM 39.1833 -76.8000 90° East 169 194 1,800 -750 Descending Potomac TRACON
Mon 08:14:21 PM 39.1833 -76.7500 90° East 140 161 1,100 -750 Descending Potomac TRACON
Mon 08:15:21 PM 39.1833 -76.7000 90° East 130 150 300 -800 Descending Potomac TRACON

Login

Don't have an account? Register now (free) for customized features, flight alerts, and more!